Latest Conditions
At L.F.Wade Int. Airport
Recorded at 7:55 am
Mostly Cloudy
Temp.: 
18°C/65°F
Humidity: 
73%
Wind: 
VRB 1KT
or 1mph
UV Index: 
N/A
Island Observations
 
Observations
Thursday, February 22, 2018

Observations are in local time and taken at least once an hour, or upon the start and end of specified events such as showers and thunderstorms.

Time Sky / Weather Wind Speed/Gusts Temp. R.H. Pressure
     knots (mph)  °C (°F)  %  mb / "Hg
 07:55 Mostly Cloudy  VRB 1/0 (1/0) 18(65) 73 1036 / 30.58
 06:55 Mostly Cloudy  VRB 2/0 (2/0) 18(64) 74 1035 / 30.56
 05:55 Mostly Cloudy  Calm 18(64) 76 1035 / 30.56
 04:55 Mostly Cloudy  VRB 1/0 (1/0) 18(64) 74 1035 / 30.55
 03:55 Mostly Cloudy  VRB 1/0 (1/0) 17(63) 83 1035 / 30.55
 02:55 Mostly Cloudy  Calm 17(62) 89 1035 / 30.56
 02:40 Mostly Cloudy  Calm 16(62) 90 1035 / 30.57
 01:55 Few Clouds  Calm 16(62) 89 1036 / 30.58
 00:55 Few Clouds  VRB 2/0 (2/0) 18(64) 76 1036 / 30.59
 23:55 Partly Cloudy  SSE 5/0 (6/0) 19(66) 71 1036 / 30.60
 22:55 Few Clouds  SE 6/0 (7/0) 19(66) 68 1036 / 30.60
 21:55 Few Clouds  ESE 5/0 (6/0) 18(65) 72 1036 / 30.60
 20:55 Partly Cloudy  E 4/0 (5/0) 19(66) 70 1036 / 30.60
 19:55 Few Clouds  E 5/0 (6/0) 18(65) 71 1036 / 30.60
 18:55 Few Clouds  E 5/0 (6/0) 18(65) 70 1036 / 30.59
 17:55 Partly Cloudy  ESE 7/0 (8/0) 20(67) 67 1036 / 30.58
 16:55 Partly Cloudy  SE 6/0 (7/0) 21(69) 60 1036 / 30.58
 15:55 Partly Cloudy  ESE 7/0 (8/0) 21(69) 60 1035 / 30.57
 14:55 Partly Cloudy  SE 8/0 (9/0) 21(70) 61 1036 / 30.58
 13:55 Partly Cloudy  ESE 8/0 (9/0) 21(70) 61 1036 / 30.59
 12:55 Partly Cloudy  ESE 8/0 (9/0) 22(71) 59 1036 / 30.60
 11:55 Mostly Cloudy  ESE 8/0 (9/0) 21(71) 60 1037 / 30.62
 10:55 Partly Cloudy  ESE 8/0 (9/0) 21(70) 60 1037 / 30.63
 09:55 Partly Cloudy  ESE 8/0 (9/0) 21(69) 64 1037 / 30.63
 08:55 Partly Cloudy Showers E 6/0 (7/0) 20(67) 71 1037 / 30.62
 07:55 Partly Cloudy Showers E 5/0 (6/0) 18(65) 79 1037 / 30.61
 06:55 Partly Cloudy  E 6/0 (7/0) 16(62) 79 1036 / 30.60
 05:55 Few Clouds  E 6/0 (7/0) 17(62) 78 1036 / 30.60
 04:55 Few Clouds  ESE 6/0 (7/0) 17(62) 78 1036 / 30.58
 04:06 Partly Cloudy  E 6/0 (7/0) 18(64) 79 1036 / 30.58
 04:00 Partly Cloudy Showers ESE 6/0 (7/0) 17(63) 78 1036 / 30.59
 03:55 Partly Cloudy  E 6/0 (7/0) 17(63) 76 1036 / 30.59
 02:55 Few Clouds  E 6/0 (7/0) 17(62) 78 1036 / 30.59
 01:55 Few Clouds  E 6/0 (7/0) 17(63) 78 1037 / 30.61
 00:55 Few Clouds  ESE 7/0 (8/0) 18(64) 74 1037 / 30.61
 23:55 Few Clouds  E 8/0 (9/0) 18(64) 73 1037 / 30.61
 22:55 Few Clouds  E 7/0 (8/0) 17(63) 77 1037 / 30.61
 21:55 Few Clouds  E 10/0 (12/0) 18(65) 74 1037 / 30.61
 20:55 Partly Cloudy  E 8/0 (9/0) 18(64) 75 1037 / 30.61
 19:55 Few Clouds  E 9/0 (10/0) 18(64) 74 1036 / 30.60
 18:55 Few Clouds  E 12/0 (14/0) 18(64) 72 1036 / 30.60
 17:55 Few Clouds  E 10/0 (12/0) 19(65) 63 1036 / 30.59
 16:55 Few Clouds  E 10/0 (12/0) 20(67) 59 1035 / 30.57
 15:55 Few Clouds  E 11/0 (13/0) 20(69) 58 1035 / 30.56
 14:55 Few Clouds  E 10/0 (12/0) 20(68) 64 1035 / 30.56
 13:55 Partly Cloudy  E 10/0 (12/0) 21(70) 50 1035 / 30.57
 12:55 Partly Cloudy  E 13/0 (15/0) 21(69) 56 1036 / 30.58
 11:55 Mostly Cloudy  E 14/0 (16/0) 21(70) 58 1036 / 30.59
 10:55 Partly Cloudy  E 14/0 (16/0) 20(68) 58 1036 / 30.59
 09:55 Partly Cloudy  E 13/0 (15/0) 20(69) 52 1036 / 30.58
 08:55 Partly Cloudy  E 12/0 (14/0) 20(68) 53 1036 / 30.58
 07:55 Partly Cloudy  E 12/0 (14/0) 19(66) 63 1035 / 30.56
 06:55 Mostly Cloudy  E 12/0 (14/0) 18(65) 62 1034 / 30.54
 05:55 Mostly Cloudy Showers E 10/0 (12/0) 18(65) 68 1034 / 30.54
 04:55 Partly Cloudy  E 10/0 (12/0) 18(64) 70 1034 / 30.53
 03:55 Partly Cloudy Showers E 11/0 (13/0) 18(64) 72 1033 / 30.51
 03:12 Mostly Cloudy Showers E 4/0 (5/0) 17(63) 80 1034 / 30.52
 02:55 Mostly Cloudy Showers E 4/0 (5/0) 17(62) 80 1034 / 30.52
 02:22 Mostly Cloudy Showers E 8/0 (9/0) 17(63) 76 1034 / 30.53
 02:14 Mostly Cloudy Showers E 12/0 (14/0) 17(63) 77 1034 / 30.54
 01:55 Mostly Cloudy Showers ENE 8/0 (9/0) 18(65) 75 1034 / 30.54
 00:55 Mostly Cloudy  ENE 10/0 (12/0) 18(64) 69 1035 / 30.55
 23:55 Mostly Cloudy  E 10/0 (12/0) 18(65) 69 1035 / 30.55
 22:55 Mostly Cloudy  ENE 8/0 (9/0) 18(64) 69 1034 / 30.54
 21:55 Few Clouds  E 9/0 (10/0) 18(64) 64 1034 / 30.54
 20:55 Partly Cloudy  E 10/0 (12/0) 18(64) 56 1034 / 30.54
 19:55 Mostly Cloudy  E 12/0 (14/0) 18(65) 57 1034 / 30.52
 18:55 Mostly Cloudy  ENE 12/0 (14/0) 18(65) 62 1034 / 30.52
 17:55 Mostly Cloudy  E 11/0 (13/0) 18(65) 64 1033 / 30.50
 16:55 Partly Cloudy  E 12/0 (14/0) 19(66) 57 1032 / 30.48
 15:55 Few Clouds  E 12/0 (14/0) 19(67) 62 1032 / 30.48
 14:55 Few Clouds  ENE 12/0 (14/0) 20(67) 54 1032 / 30.48
 13:55 Partly Cloudy  ENE 12/0 (14/0) 19(67) 59 1032 / 30.48
 12:55 Partly Cloudy  E 13/0 (15/0) 19(66) 58 1033 / 30.50
 11:55 Partly Cloudy  ENE 12/0 (14/0) 19(67) 58 1033 / 30.51
 10:55 Mostly Cloudy  ENE 11/0 (13/0) 18(65) 60 1033 / 30.51
 09:55 Mostly Cloudy  ENE 12/0 (14/0) 18(65) 61 1033 / 30.50
 08:55 Mostly Cloudy  NE 12/0 (14/0) 18(64) 62 1033 / 30.50
 07:55 Mostly Cloudy  NE 11/0 (13/0) 18(64) 66 1032 / 30.47
 06:55 Mostly Cloudy  NE 11/0 (13/0) 18(64) 66 1031 / 30.45
 05:55 Mostly Cloudy  NE 12/0 (14/0) 18(64) 68 1030 / 30.42
 05:36 Mostly Cloudy  NE 12/0 (14/0) 18(64) 69 1030 / 30.42
 04:55 Mostly Cloudy  NE 11/0 (13/0) 18(64) 71 1029 / 30.40
 03:55 Overcast  NE 11/0 (13/0) 18(65) 72 1029 / 30.38
 02:55 Overcast  NE 11/0 (13/0) 19(65) 74 1028 / 30.37
 02:15 Overcast  NNE 10/0 (12/0) 19(66) 73 1028 / 30.36
 01:55 Overcast  NNE 12/0 (14/0) 19(66) 73 1028 / 30.36
 00:55 Overcast  NNE 11/0 (13/0) 19(67) 73 1028 / 30.35
 00:40 Overcast  NNE 12/0 (14/0) 19(67) 72 1028 / 30.35
 23:55 Mostly Cloudy  NNE 10/0 (12/0) 19(67) 74 1027 / 30.34
 22:55 Mostly Cloudy  N 11/0 (13/0) 20(67) 78 1027 / 30.33
 22:12 Mostly Cloudy  NNE 10/0 (12/0) 20(67) 82 1027 / 30.32
 21:55 Few Clouds  N 10/0 (12/0) 20(67) 80 1026 / 30.31
 20:55 Overcast  N 13/0 (15/0) 20(68) 83 1026 / 30.30
 20:24 Mostly Cloudy  N 14/0 (16/0) 20(69) 85 1026 / 30.29
 20:04 Overcast Showers N 11/0 (13/0) 20(68) 89 1025 / 30.28
 19:55 Mostly Cloudy Showers NNW 14/0 (16/0) 20(68) 90 1025 / 30.28
 19:48 Mostly Cloudy Showers NNW 14/0 (16/0) 20(68) 89 1025 / 30.28
 19:45 Mostly Cloudy Showers NNW 12/0 (14/0) 21(70) 91 1025 / 30.27
 18:55 Mostly Cloudy  WNW 11/0 (13/0) 21(70) 90 1025 / 30.26
Island AWOS